createdAt,value
2023-04-02T09:35:53.322Z,13.46
2023-04-02T09:38:28.883Z,13.93
2023-04-02T09:41:05.260Z,13.91
2023-04-02T09:43:37.445Z,14.26
2023-04-02T09:46:14.005Z,14.12
2023-04-02T09:48:45.649Z,14.52
2023-04-02T09:51:18.300Z,14.68
2023-04-02T09:54:15.982Z,14.53
2023-04-02T09:57:04.334Z,14.34
2023-04-02T09:59:31.963Z,14.26
2023-04-02T10:02:03.276Z,14.18
2023-04-02T10:04:47.979Z,14.45
2023-04-02T10:07:42.173Z,14.48
2023-04-02T10:10:44.692Z,14.57
2023-04-02T10:13:46.446Z,14.74
2023-04-02T10:16:37.745Z,14.76
2023-04-02T10:19:34.782Z,14.22
2023-04-02T10:22:20.943Z,14.37
2023-04-02T10:24:49.922Z,14.65
2023-04-02T10:27:37.973Z,14.87
2023-04-02T10:30:11.499Z,15.07
2023-04-02T10:33:23.193Z,15.23
2023-04-02T10:36:37.545Z,14.93
2023-04-02T10:39:33.855Z,14.81
2023-04-02T10:42:22.745Z,14.66
2023-04-02T10:45:28.469Z,14.60
2023-04-02T10:48:20.781Z,14.53
2023-04-02T10:51:11.917Z,14.77
2023-04-02T10:54:02.940Z,14.49
2023-04-02T10:56:44.228Z,14.78
2023-04-02T10:59:33.292Z,15.07
2023-04-02T11:02:15.152Z,15.04
2023-04-02T11:04:46.458Z,14.91
2023-04-02T11:07:27.546Z,14.83
2023-04-02T11:09:58.239Z,14.90
2023-04-02T11:12:55.935Z,14.68
2023-04-02T11:15:26.183Z,14.91
2023-04-02T11:17:54.663Z,14.92
2023-04-02T11:20:49.090Z,15.02
2023-04-02T11:23:20.900Z,15.26
2023-04-02T11:25:48.698Z,15.34
2023-04-02T11:28:31.840Z,15.39
2023-04-02T11:31:00.236Z,15.36
2023-04-02T11:33:44.074Z,15.26
2023-04-02T11:36:50.740Z,15.26
2023-04-02T11:39:51.433Z,15.50
2023-04-02T11:42:19.034Z,15.24
2023-04-02T11:44:46.655Z,15.28
2023-04-02T11:47:25.738Z,15.28
2023-04-02T11:50:01.252Z,15.36
2023-04-02T11:52:51.075Z,15.80
2023-04-02T11:55:27.346Z,16.04
2023-04-02T11:58:32.822Z,15.72
2023-04-02T12:01:09.211Z,15.87
2023-04-02T12:03:52.984Z,16.04
2023-04-02T12:06:46.694Z,16.12
2023-04-02T12:09:24.982Z,16.29
2023-04-02T12:12:02.632Z,15.86
2023-04-02T12:14:33.158Z,15.93
2023-04-02T12:17:01.491Z,16.34
2023-04-02T12:19:31.967Z,16.34
2023-04-02T12:22:00.544Z,16.54
2023-04-02T12:24:31.270Z,16.74
2023-04-02T12:27:24.370Z,16.77
2023-04-02T12:30:19.059Z,16.93
2023-04-02T12:33:15.917Z,16.93
2023-04-02T12:35:45.588Z,16.96
2023-04-02T12:38:23.662Z,17.17
2023-04-02T12:41:01.995Z,17.06
2023-04-02T12:43:33.808Z,17.35
2023-04-02T12:46:05.917Z,17.37
2023-04-02T12:48:35.970Z,17.31
2023-04-02T12:51:04.831Z,17.16
2023-04-02T12:53:40.439Z,17.13
2023-04-02T12:56:21.642Z,17.38
2023-04-02T12:59:00.614Z,17.21
2023-04-02T13:01:33.926Z,17.32
2023-04-02T13:04:14.885Z,17.37
2023-04-02T13:06:52.133Z,17.45
2023-04-02T13:09:35.814Z,17.60
2023-04-02T13:12:03.939Z,17.90
2023-04-02T13:14:31.563Z,17.80
2023-04-02T13:16:58.747Z,18.02
2023-04-02T13:19:33.987Z,18.05
2023-04-02T13:22:04.157Z,17.99
2023-04-02T13:24:33.778Z,17.72
2023-04-02T13:27:03.535Z,17.18
2023-04-02T13:29:35.112Z,16.79
2023-04-02T13:32:12.254Z,16.08
2023-04-02T13:34:39.338Z,15.92
2023-04-02T13:37:06.467Z,15.80
2023-04-02T13:39:33.587Z,15.82
2023-04-02T13:42:04.424Z,15.72
2023-04-02T13:44:34.743Z,15.68
2023-04-02T13:47:01.932Z,15.45
2023-04-02T13:49:31.087Z,15.24
2023-04-02T13:52:03.163Z,14.86
2023-04-02T13:54:55.226Z,14.86
2023-04-02T13:57:22.485Z,14.82
2023-04-02T13:59:49.819Z,14.74
2023-04-02T14:02:25.202Z,14.63
2023-04-02T14:05:55.525Z,14.76
2023-04-02T14:08:37.760Z,14.52
2023-04-02T14:11:52.175Z,14.72
2023-04-02T14:14:48.107Z,14.59
2023-04-02T14:18:33.028Z,14.49
2023-04-02T14:21:27.647Z,14.49
2023-04-02T14:24:41.479Z,14.41
2023-04-02T14:28:00.693Z,14.26
2023-04-02T14:31:07.006Z,14.12
2023-04-02T14:33:49.309Z,14.35
2023-04-02T14:36:24.991Z,14.38
2023-04-02T14:39:17.735Z,14.28
2023-04-02T14:42:04.454Z,14.37
2023-04-02T14:44:43.894Z,14.48
2023-04-02T14:47:46.556Z,14.52
2023-04-02T14:50:34.944Z,14.71
2023-04-02T14:53:19.941Z,14.43
2023-04-02T14:55:52.375Z,14.71
2023-04-02T14:58:40.943Z,14.51
2023-04-02T15:01:21.848Z,14.46
2023-04-02T15:04:06.099Z,14.44
2023-04-02T15:06:50.649Z,14.45
2023-04-02T15:09:32.290Z,14.47
2023-04-02T15:12:23.024Z,14.58
2023-04-02T15:15:44.800Z,14.55
2023-04-02T15:18:17.117Z,14.47
2023-04-02T15:21:20.514Z,14.35
2023-04-02T15:24:47.799Z,14.43
2023-04-02T15:27:51.360Z,13.98
2023-04-02T15:30:25.612Z,13.98
2023-04-02T15:33:30.020Z,13.67
2023-04-02T15:36:29.469Z,13.39
2023-04-02T15:39:22.039Z,13.52
2023-04-02T15:42:19.066Z,13.65
2023-04-02T15:45:12.731Z,13.59
2023-04-02T15:48:23.785Z,13.58
2023-04-02T15:51:37.009Z,13.58
2023-04-02T15:54:26.896Z,13.61
2023-04-02T15:57:23.154Z,13.32
2023-04-02T16:00:30.774Z,13.31
2023-04-02T16:03:29.903Z,13.33
2023-04-02T16:06:32.413Z,13.10
2023-04-02T16:09:24.363Z,13.01
2023-04-02T16:12:19.043Z,12.98
2023-04-02T16:14:49.581Z,12.94
2023-04-02T16:17:31.197Z,12.83
2023-04-02T16:20:27.373Z,12.92
2023-04-02T16:23:11.566Z,13.08
2023-04-02T16:26:02.595Z,13.20
2023-04-02T16:28:40.306Z,13.29
2023-04-02T16:31:32.081Z,13.18
2023-04-02T16:34:44.085Z,13.45
2023-04-02T16:37:32.250Z,13.16
2023-04-02T16:40:25.588Z,12.91
2023-04-02T16:43:25.416Z,12.68
2023-04-02T16:46:35.871Z,12.63
2023-04-02T16:50:01.601Z,12.42
2023-04-02T16:53:03.413Z,12.24
2023-04-02T16:56:07.289Z,12.65
2023-04-02T16:59:11.883Z,12.30
2023-04-02T17:02:02.894Z,12.29
2023-04-02T17:04:54.581Z,12.20
2023-04-02T17:07:42.570Z,12.22
2023-04-02T17:11:01.896Z,12.03
2023-04-02T17:13:46.377Z,12.04
2023-04-02T17:16:45.496Z,11.92
2023-04-02T17:19:17.441Z,11.61
2023-04-02T17:21:52.254Z,11.84
2023-04-02T17:24:28.453Z,11.70
2023-04-02T17:27:07.257Z,11.39
2023-04-02T17:29:43.720Z,11.42
2023-04-02T17:32:33.724Z,11.50
2023-04-02T17:35:53.825Z,11.65
2023-04-02T17:38:51.299Z,11.37
2023-04-02T17:41:43.720Z,11.28
2023-04-02T17:45:11.376Z,11.33
2023-04-02T17:48:00.552Z,11.11
2023-04-02T17:50:49.141Z,11.19
2023-04-02T17:53:53.036Z,11.07
2023-04-02T17:56:59.690Z,10.92
2023-04-02T18:00:14.253Z,10.93
2023-04-02T18:03:22.266Z,10.19
2023-04-02T18:06:07.127Z,10.27
2023-04-02T18:09:04.402Z,10.10
2023-04-02T18:12:29.754Z,10.15
2023-04-02T18:15:55.806Z,10.27
2023-04-02T18:18:49.990Z,10.33
2023-04-02T18:22:13.946Z,10.44
2023-04-02T18:25:24.656Z,10.38
2023-04-02T18:28:19.312Z,10.20
2023-04-02T18:31:27.151Z,10.27
2023-04-02T18:34:22.064Z,10.32
2023-04-02T18:37:43.495Z,10.16
2023-04-02T18:40:19.957Z,10.03
2023-04-02T18:42:58.643Z,10.11
2023-04-02T18:45:56.300Z,9.97
2023-04-02T18:48:53.679Z,9.86
2023-04-02T18:51:25.127Z,9.61
2023-04-02T18:54:14.479Z,9.48
2023-04-02T18:56:42.761Z,9.54
2023-04-02T18:59:34.277Z,9.63
2023-04-02T19:02:28.377Z,9.67
2023-04-02T19:05:13.018Z,9.50
2023-04-02T19:07:43.577Z,9.46
2023-04-02T19:10:35.572Z,9.27
2023-04-02T19:13:08.120Z,9.31
2023-04-02T19:16:14.449Z,9.36
2023-04-02T19:19:14.201Z,9.18
2023-04-02T19:21:51.439Z,9.43
2023-04-02T19:24:46.890Z,9.32
2023-04-02T19:27:51.442Z,9.23
2023-04-02T19:30:37.951Z,9.30
2023-04-02T19:33:37.920Z,9.33
2023-04-02T19:36:38.726Z,9.39
2023-04-02T19:39:46.921Z,8.70
2023-04-02T19:42:39.003Z,8.53
2023-04-02T19:45:19.952Z,8.50
2023-04-02T19:47:48.336Z,8.46
2023-04-02T19:50:16.163Z,8.69
2023-04-02T19:52:43.867Z,8.62
2023-04-02T19:55:12.277Z,8.56
2023-04-02T19:57:40.256Z,8.77
2023-04-02T20:00:10.782Z,8.87
2023-04-02T20:02:39.827Z,8.63
2023-04-02T20:05:10.827Z,9.48
2023-04-02T20:07:38.842Z,9.49
2023-04-02T20:10:07.997Z,9.20
2023-04-02T20:12:35.942Z,8.82
2023-04-02T20:15:07.370Z,8.64
2023-04-02T20:17:35.048Z,8.45
2023-04-02T20:20:02.897Z,8.46
2023-04-02T20:22:30.499Z,8.38
2023-04-02T20:24:58.116Z,8.10
2023-04-02T20:27:25.841Z,8.02
2023-04-02T20:29:56.021Z,7.92
2023-04-02T20:32:24.442Z,7.73
2023-04-02T20:34:53.194Z,7.71
2023-04-02T20:37:21.485Z,7.70
2023-04-02T20:39:49.147Z,7.57
2023-04-02T20:42:16.836Z,7.89
2023-04-02T20:44:44.469Z,7.65
2023-04-02T20:47:12.134Z,7.84
2023-04-02T20:49:39.703Z,7.79
2023-04-02T20:52:07.406Z,7.62
2023-04-02T20:54:35.036Z,7.83
2023-04-02T20:57:07.761Z,7.78
2023-04-02T20:59:35.299Z,7.89
2023-04-02T21:02:02.482Z,8.03
2023-04-02T21:04:29.729Z,8.04
2023-04-02T21:06:57.473Z,7.94
2023-04-02T21:09:25.123Z,7.46
2023-04-02T21:11:52.321Z,7.35
2023-04-02T21:14:19.590Z,7.59
2023-04-02T21:16:46.758Z,7.57
2023-04-02T21:19:13.929Z,7.50
2023-04-02T21:21:41.357Z,7.69
2023-04-02T21:24:18.046Z,7.79
2023-04-02T21:26:52.459Z,7.90
2023-04-02T21:29:20.434Z,7.59
2023-04-02T21:31:49.319Z,7.78
2023-04-02T21:34:17.397Z,7.80
2023-04-02T21:36:48.798Z,7.85
2023-04-02T21:39:24.135Z,7.82
2023-04-02T21:41:54.774Z,7.90
2023-04-02T21:44:24.392Z,7.79
2023-04-02T21:46:54.090Z,7.72
2023-04-02T21:49:23.543Z,7.63
2023-04-02T21:51:54.096Z,7.84
2023-04-02T21:54:21.707Z,7.83
2023-04-02T21:56:49.869Z,7.43
2023-04-02T21:59:18.661Z,7.40
2023-04-02T22:01:52.073Z,7.62
2023-04-02T22:04:25.961Z,7.46
2023-04-02T22:06:54.193Z,7.28
2023-04-02T22:09:26.583Z,7.35
2023-04-02T22:12:01.463Z,7.48
2023-04-02T22:14:30.242Z,7.63
2023-04-02T22:17:00.788Z,7.76
2023-04-02T22:19:28.638Z,7.82
2023-04-02T22:21:56.730Z,7.77
2023-04-02T22:24:24.984Z,7.56
2023-04-02T22:26:52.722Z,7.69
2023-04-02T22:29:19.853Z,7.76
2023-04-02T22:31:47.658Z,7.65
2023-04-02T22:34:15.630Z,7.73
2023-04-02T22:36:43.389Z,7.83
2023-04-02T22:39:12.650Z,7.78
2023-04-02T22:41:40.365Z,7.79
2023-04-02T22:44:07.857Z,7.53
2023-04-02T22:46:35.246Z,7.60
2023-04-02T22:49:03.125Z,7.77
2023-04-02T22:51:30.630Z,7.77
2023-04-02T22:53:58.084Z,7.86
2023-04-02T22:56:31.895Z,7.63
2023-04-02T22:58:59.838Z,7.61
2023-04-02T23:01:35.384Z,7.35
2023-04-02T23:04:04.817Z,7.36
2023-04-02T23:06:32.978Z,7.55
2023-04-02T23:09:00.489Z,7.33
2023-04-02T23:11:28.432Z,7.27
2023-04-02T23:13:58.231Z,7.40
2023-04-02T23:16:28.471Z,7.33
2023-04-02T23:18:57.710Z,7.43
2023-04-02T23:21:26.236Z,7.28
2023-04-02T23:23:54.520Z,7.29
2023-04-02T23:26:32.261Z,7.44
2023-04-02T23:29:02.500Z,7.30
2023-04-02T23:31:29.965Z,7.02
2023-04-02T23:33:58.007Z,7.16
2023-04-02T23:36:31.889Z,7.22
2023-04-02T23:39:09.232Z,7.28
2023-04-02T23:41:40.882Z,7.10
2023-04-02T23:44:09.590Z,7.15
2023-04-02T23:46:37.271Z,7.24
2023-04-02T23:49:04.541Z,7.09
2023-04-02T23:51:32.443Z,6.98
2023-04-02T23:54:00.238Z,7.02
2023-04-02T23:56:28.101Z,7.07
2023-04-02T23:58:55.388Z,6.64
